createdAt,value
2022-08-16T00:01:56.322Z,9.35
2022-08-16T00:04:28.146Z,13.32
2022-08-16T00:06:56.207Z,7.57
2022-08-16T00:09:24.331Z,8.47
2022-08-16T00:11:52.580Z,9.23
2022-08-16T00:14:24.922Z,9.00
2022-08-16T00:17:06.335Z,10.88
2022-08-16T00:19:45.335Z,8.70
2022-08-16T00:22:13.669Z,9.63
2022-08-16T00:24:44.970Z,11.23
2022-08-16T00:27:17.374Z,9.93
2022-08-16T00:29:45.894Z,12.48
2022-08-16T00:32:18.169Z,9.00
2022-08-16T00:34:53.805Z,9.68
2022-08-16T00:37:57.412Z,9.27
2022-08-16T00:40:33.966Z,10.57
2022-08-16T00:43:19.007Z,8.57
2022-08-16T00:46:34.774Z,10.50
2022-08-16T00:48:53.562Z,8.73
2022-08-16T00:51:24.157Z,8.55
2022-08-16T00:53:53.790Z,11.73
2022-08-16T00:56:57.803Z,9.27
2022-08-16T00:59:16.234Z,8.90
2022-08-16T01:01:46.881Z,8.80
2022-08-16T01:04:29.626Z,8.85
2022-08-16T01:07:05.153Z,8.35
2022-08-16T01:09:38.721Z,10.13
2022-08-16T01:12:26.477Z,9.07
2022-08-16T01:14:58.346Z,7.23
2022-08-16T01:17:28.673Z,7.85
2022-08-16T01:20:23.813Z,9.55
2022-08-16T01:22:59.201Z,7.78
2022-08-16T01:25:37.223Z,8.13
2022-08-16T01:28:20.293Z,7.68
2022-08-16T01:30:56.831Z,10.10
2022-08-16T01:33:33.309Z,9.57
2022-08-16T01:36:11.856Z,10.30
2022-08-16T01:38:46.859Z,10.18
2022-08-16T01:41:20.995Z,9.73
2022-08-16T01:43:54.305Z,9.30
2022-08-16T01:46:39.818Z,10.20
2022-08-16T01:49:43.683Z,9.18
2022-08-16T01:52:27.949Z,9.25
2022-08-16T01:55:17.925Z,11.32
2022-08-16T01:57:53.879Z,13.98
2022-08-16T02:00:29.243Z,11.05
2022-08-16T02:03:00.077Z,11.03
2022-08-16T02:05:31.060Z,13.52
2022-08-16T02:08:03.565Z,10.90
2022-08-16T02:10:34.120Z,11.57
2022-08-16T02:13:12.031Z,8.48
2022-08-16T02:15:43.818Z,10.77
2022-08-16T02:18:18.620Z,9.50
2022-08-16T02:20:53.611Z,9.75
2022-08-16T02:23:23.087Z,10.27
2022-08-16T02:25:53.984Z,11.77
2022-08-16T02:28:24.972Z,10.40
2022-08-16T02:30:54.849Z,15.52
2022-08-16T02:33:44.419Z,10.77
2022-08-16T02:36:48.357Z,11.73
2022-08-16T02:39:10.926Z,10.68
2022-08-16T02:41:41.303Z,10.05
2022-08-16T02:44:14.363Z,11.40
2022-08-16T02:46:53.709Z,10.77
2022-08-16T02:49:58.623Z,11.33
2022-08-16T02:52:17.166Z,10.77
2022-08-16T02:54:55.464Z,10.70
2022-08-16T02:57:25.588Z,10.90
2022-08-16T02:59:54.817Z,13.20
2022-08-16T03:02:32.184Z,11.73
2022-08-16T03:05:08.860Z,9.83
2022-08-16T03:07:40.363Z,13.48
2022-08-16T03:10:19.811Z,10.85
2022-08-16T03:12:56.090Z,16.33
2022-08-16T03:15:28.479Z,12.40
2022-08-16T03:17:57.024Z,12.00
2022-08-16T03:20:32.408Z,10.87
2022-08-16T03:23:02.737Z,13.35
2022-08-16T03:25:44.289Z,12.32
2022-08-16T03:28:16.998Z,9.77
2022-08-16T03:30:49.264Z,11.13
2022-08-16T03:33:20.345Z,11.13
2022-08-16T03:36:19.976Z,13.70
2022-08-16T03:38:53.772Z,9.57
2022-08-16T03:41:25.464Z,10.82
2022-08-16T03:44:01.419Z,11.13
2022-08-16T03:46:47.729Z,10.32
2022-08-16T03:49:36.608Z,12.50
2022-08-16T03:52:08.007Z,12.07
2022-08-16T03:54:37.509Z,14.90
2022-08-16T03:57:11.336Z,12.15
2022-08-16T03:59:44.510Z,13.65
2022-08-16T04:02:22.468Z,13.95
2022-08-16T04:04:59.607Z,12.27
2022-08-16T04:07:27.488Z,11.47
2022-08-16T04:10:36.262Z,10.65
2022-08-16T04:12:55.409Z,11.63
2022-08-16T04:15:29.592Z,10.85
2022-08-16T04:18:16.899Z,12.43
2022-08-16T04:20:48.122Z,13.17
2022-08-16T04:23:17.370Z,10.17
2022-08-16T04:25:47.099Z,10.75
2022-08-16T04:28:51.923Z,10.95
2022-08-16T04:31:03.414Z,13.18
2022-08-16T04:33:37.790Z,12.70
2022-08-16T04:36:20.516Z,11.07
2022-08-16T04:38:50.321Z,8.43
2022-08-16T04:41:32.804Z,11.20
2022-08-16T04:44:32.664Z,11.52
2022-08-16T04:47:02.782Z,11.38
2022-08-16T04:49:43.619Z,12.77
2022-08-16T04:52:34.263Z,12.20
2022-08-16T04:55:19.025Z,12.30
2022-08-16T04:57:53.770Z,14.13
2022-08-16T05:00:33.751Z,13.48
2022-08-16T05:03:15.326Z,12.38
2022-08-16T05:05:59.461Z,12.30
2022-08-16T05:08:31.506Z,15.17
2022-08-16T05:11:09.712Z,12.87
2022-08-16T05:13:42.850Z,13.07
2022-08-16T05:16:24.965Z,14.65
2022-08-16T05:19:02.463Z,10.88
2022-08-16T05:21:35.947Z,10.90
2022-08-16T05:24:09.237Z,12.57
2022-08-16T05:26:40.916Z,14.50
2022-08-16T05:29:20.610Z,13.10
2022-08-16T05:32:31.903Z,13.27
2022-08-16T05:34:57.649Z,12.02
2022-08-16T05:37:25.463Z,11.45
2022-08-16T05:39:56.765Z,13.43
2022-08-16T05:42:35.775Z,12.20
2022-08-16T05:45:07.124Z,13.77
2022-08-16T05:47:43.238Z,12.82
2022-08-16T05:50:19.351Z,12.73
2022-08-16T05:52:49.646Z,14.45
2022-08-16T05:55:18.552Z,11.88
2022-08-16T05:57:52.359Z,11.13
2022-08-16T06:00:22.589Z,13.03
2022-08-16T06:02:53.794Z,11.23
2022-08-16T06:05:43.734Z,9.48
2022-08-16T06:08:31.456Z,13.80
2022-08-16T06:11:09.726Z,9.10
2022-08-16T06:13:43.042Z,9.82
2022-08-16T06:16:18.481Z,13.03
2022-08-16T06:18:49.450Z,13.07
2022-08-16T06:21:22.655Z,15.45
2022-08-16T06:23:57.300Z,12.63
2022-08-16T06:26:36.522Z,15.70
2022-08-16T06:29:07.709Z,17.70
2022-08-16T06:31:46.697Z,12.55
2022-08-16T06:34:55.666Z,11.17
2022-08-16T06:37:11.314Z,9.80
2022-08-16T06:39:46.713Z,14.80
2022-08-16T06:42:39.360Z,14.95
2022-08-16T06:45:38.260Z,10.00
2022-08-16T06:48:32.952Z,14.15
2022-08-16T06:51:06.757Z,10.97
2022-08-16T06:53:36.846Z,10.88
2022-08-16T06:56:14.662Z,15.85
2022-08-16T06:59:04.875Z,15.32
2022-08-16T07:01:45.151Z,12.57
2022-08-16T07:04:32.966Z,10.38
2022-08-16T07:07:11.463Z,10.63
2022-08-16T07:09:43.504Z,8.77
2022-08-16T07:12:12.079Z,9.73
2022-08-16T07:14:48.026Z,10.45
2022-08-16T07:17:23.313Z,14.35
2022-08-16T07:20:03.734Z,9.70
2022-08-16T07:22:59.238Z,9.33
2022-08-16T07:25:40.270Z,10.93
2022-08-16T07:28:20.613Z,10.25
2022-08-16T07:30:53.059Z,10.65
2022-08-16T07:33:52.259Z,13.15
2022-08-16T07:36:28.993Z,12.15
2022-08-16T07:38:59.523Z,11.00
2022-08-16T07:41:31.964Z,11.37
2022-08-16T07:44:02.837Z,11.55
2022-08-16T07:46:44.330Z,11.27
2022-08-16T07:49:23.138Z,11.57
2022-08-16T07:51:54.525Z,12.20
2022-08-16T07:54:32.514Z,10.40
2022-08-16T07:57:11.412Z,11.50
2022-08-16T07:59:45.645Z,14.30
2022-08-16T08:02:20.055Z,13.40
2022-08-16T08:04:56.863Z,9.70
2022-08-16T08:07:28.245Z,17.30
2022-08-16T08:10:01.631Z,12.63
2022-08-16T08:12:36.081Z,11.63
2022-08-16T08:15:10.504Z,18.23
2022-08-16T08:17:42.960Z,13.23
2022-08-16T08:20:28.157Z,16.85
2022-08-16T08:23:03.462Z,10.85
2022-08-16T08:25:54.102Z,13.67
2022-08-16T08:28:36.749Z,13.70
2022-08-16T08:31:10.530Z,11.23
2022-08-16T08:33:47.319Z,19.20
2022-08-16T08:36:33.040Z,21.05
2022-08-16T08:39:12.673Z,9.00
2022-08-16T08:41:44.099Z,10.10
2022-08-16T08:44:28.291Z,12.87
2022-08-16T08:47:13.328Z,14.57
2022-08-16T08:49:50.706Z,10.35
2022-08-16T08:52:34.755Z,10.57
2022-08-16T08:55:11.240Z,13.60
2022-08-16T08:57:45.538Z,7.90
2022-08-16T09:00:26.895Z,7.37
2022-08-16T09:02:59.994Z,9.63
2022-08-16T09:05:37.266Z,10.73
2022-08-16T09:08:11.698Z,10.57
2022-08-16T09:10:59.294Z,9.98
2022-08-16T09:13:35.021Z,12.00
2022-08-16T09:16:03.873Z,12.63
2022-08-16T09:18:35.576Z,11.73
2022-08-16T09:21:09.432Z,12.50
2022-08-16T09:23:40.156Z,9.18
2022-08-16T09:26:44.129Z,10.63
2022-08-16T09:29:13.644Z,10.27
2022-08-16T09:31:47.712Z,10.93
2022-08-16T09:34:21.486Z,13.00
2022-08-16T09:36:49.660Z,12.40
2022-08-16T09:39:27.334Z,10.68
2022-08-16T09:42:10.539Z,11.02
2022-08-16T09:45:11.822Z,11.43
2022-08-16T09:47:29.445Z,11.07
2022-08-16T09:50:22.534Z,11.10
2022-08-16T09:52:51.325Z,14.23
2022-08-16T09:55:19.292Z,17.70
2022-08-16T09:57:52.986Z,24.25
2022-08-16T10:00:44.991Z,20.55
2022-08-16T10:03:12.436Z,13.93
2022-08-16T10:05:49.231Z,12.32
2022-08-16T10:08:25.787Z,11.57
2022-08-16T10:11:13.590Z,14.50
2022-08-16T10:13:44.019Z,10.52
2022-08-16T10:19:06.567Z,11.50
2022-08-16T10:21:34.167Z,11.77
2022-08-16T10:24:05.508Z,12.35
2022-08-16T10:27:16.843Z,12.60
2022-08-16T10:29:25.000Z,10.18
2022-08-16T10:32:12.932Z,10.73
2022-08-16T10:34:52.310Z,10.90
2022-08-16T10:37:32.833Z,10.23
2022-08-16T10:40:29.446Z,9.57
2022-08-16T10:43:02.134Z,11.50
2022-08-16T10:45:37.234Z,10.43
2022-08-16T10:48:27.303Z,11.10
2022-08-16T10:50:58.498Z,10.63
2022-08-16T10:53:32.728Z,10.40
2022-08-16T10:56:52.534Z,13.65
2022-08-16T10:59:29.638Z,15.50
2022-08-16T11:11:04.696Z,11.97
2022-08-16T11:15:56.701Z,11.45
2022-08-16T11:18:49.011Z,14.48
2022-08-16T11:21:28.666Z,13.77
2022-08-16T11:23:58.813Z,13.05
2022-08-16T11:26:28.922Z,13.15
2022-08-16T11:29:14.057Z,9.67
2022-08-16T11:31:45.900Z,9.97
2022-08-16T11:34:21.859Z,10.18
2022-08-16T11:36:53.690Z,10.98
2022-08-16T11:39:29.280Z,10.27
2022-08-16T11:41:58.080Z,11.20
2022-08-16T11:44:51.981Z,8.45
2022-08-16T11:47:14.363Z,15.32
2022-08-16T11:49:42.203Z,11.53
2022-08-16T11:52:10.110Z,12.20
2022-08-16T11:54:37.846Z,10.38
2022-08-16T11:57:09.187Z,9.32
2022-08-16T11:59:39.962Z,13.85
2022-08-16T12:02:32.230Z,8.27
2022-08-16T12:04:59.489Z,11.03
2022-08-16T12:07:29.309Z,14.07
2022-08-16T12:10:03.934Z,10.75
2022-08-16T12:12:32.751Z,13.52
2022-08-16T12:15:02.047Z,11.85
2022-08-16T12:17:32.481Z,8.97
2022-08-16T12:20:17.638Z,8.80
2022-08-16T12:22:51.267Z,9.27
2022-08-16T12:25:25.859Z,11.55
2022-08-16T12:27:55.766Z,13.32
2022-08-16T12:30:36.377Z,10.57
2022-08-16T12:33:11.684Z,10.45
2022-08-16T12:35:49.186Z,10.63
2022-08-16T12:38:40.788Z,9.90
2022-08-16T12:41:08.127Z,9.57
2022-08-16T12:43:45.264Z,10.07
2022-08-16T12:46:15.572Z,12.60
2022-08-16T12:48:59.267Z,10.13
2022-08-16T12:51:58.796Z,9.67
2022-08-16T12:54:22.273Z,10.30
2022-08-16T12:56:53.097Z,12.82
2022-08-16T12:59:23.912Z,11.88
2022-08-16T13:01:58.316Z,9.82
2022-08-16T13:04:33.162Z,13.43
2022-08-16T13:09:42.356Z,11.27
2022-08-16T13:12:19.935Z,11.23
2022-08-16T13:14:50.294Z,11.68
2022-08-16T13:17:26.534Z,11.50
2022-08-16T13:20:13.732Z,10.27
2022-08-16T13:22:47.355Z,12.23
2022-08-16T13:25:21.832Z,9.00
2022-08-16T13:28:15.073Z,10.05
2022-08-16T13:30:48.068Z,10.23
2022-08-16T13:33:26.152Z,11.57
2022-08-16T13:36:01.330Z,10.63
2022-08-16T13:38:37.304Z,12.35
2022-08-16T13:41:10.870Z,10.15
2022-08-16T13:43:42.268Z,14.98
2022-08-16T13:46:10.294Z,13.88
2022-08-16T13:48:43.986Z,12.80
2022-08-16T13:51:17.448Z,9.70
2022-08-16T13:53:59.935Z,12.15
2022-08-16T13:56:39.552Z,10.98
2022-08-16T13:59:14.439Z,12.75
2022-08-16T14:01:55.336Z,13.47
2022-08-16T14:04:36.586Z,12.97
2022-08-16T14:07:11.883Z,13.00
2022-08-16T14:09:40.250Z,10.27
2022-08-16T14:12:29.667Z,12.02
2022-08-16T14:15:00.902Z,10.95
2022-08-16T14:17:31.279Z,12.27
2022-08-16T14:20:21.350Z,10.50
2022-08-16T14:22:54.781Z,12.38
2022-08-16T14:25:27.161Z,11.88
2022-08-16T14:27:56.847Z,11.43
2022-08-16T14:30:27.728Z,15.07
2022-08-16T14:32:56.406Z,10.60
2022-08-16T14:35:29.363Z,13.37
2022-08-16T14:38:18.607Z,12.13
2022-08-16T14:40:54.999Z,12.85
2022-08-16T14:43:29.766Z,12.43
2022-08-16T14:45:59.535Z,14.45
2022-08-16T14:48:27.295Z,11.47
2022-08-16T14:50:55.743Z,12.80
2022-08-16T14:53:28.895Z,12.85
2022-08-16T14:56:03.260Z,13.38
2022-08-16T14:58:36.752Z,12.25
2022-08-16T15:01:10.034Z,14.70
2022-08-16T15:03:44.717Z,10.77
2022-08-16T15:06:25.458Z,12.25
2022-08-16T15:08:53.235Z,13.43
2022-08-16T15:11:23.957Z,11.98
2022-08-16T15:13:56.337Z,16.55
2022-08-16T15:16:24.095Z,11.67
2022-08-16T15:18:59.061Z,13.40
2022-08-16T15:21:27.923Z,13.95
2022-08-16T15:23:58.786Z,13.20
2022-08-16T15:26:34.754Z,13.25
2022-08-16T15:29:12.907Z,12.97
2022-08-16T15:31:43.235Z,14.57
2022-08-16T15:34:13.157Z,14.73
2022-08-16T15:36:52.652Z,10.32
2022-08-16T15:39:29.803Z,11.65
2022-08-16T15:42:11.019Z,18.83
2022-08-16T15:44:45.125Z,18.53
2022-08-16T15:47:25.701Z,11.68
2022-08-16T15:49:55.699Z,16.60
2022-08-16T15:52:32.514Z,13.65
2022-08-16T15:55:12.965Z,14.57
2022-08-16T15:57:51.307Z,18.50
2022-08-16T16:00:20.945Z,16.63
2022-08-16T16:03:08.944Z,19.45
2022-08-16T16:05:38.984Z,12.88
2022-08-16T16:08:22.461Z,16.13
2022-08-16T16:10:56.077Z,13.40
2022-08-16T16:13:28.420Z,16.60
2022-08-16T16:16:00.812Z,13.10
2022-08-16T16:18:30.221Z,12.27
2022-08-16T16:21:01.648Z,12.63
2022-08-16T16:23:34.818Z,14.30
2022-08-16T16:26:06.032Z,13.88
2022-08-16T16:29:06.346Z,14.90
2022-08-16T16:31:24.134Z,19.00
2022-08-16T16:33:56.196Z,15.52
2022-08-16T16:36:29.581Z,15.07
2022-08-16T16:38:58.053Z,14.50
2022-08-16T16:41:28.327Z,11.90
2022-08-16T16:44:00.261Z,11.20
2022-08-16T16:46:42.878Z,16.23
2022-08-16T16:49:14.154Z,12.67
2022-08-16T16:51:44.903Z,12.77
2022-08-16T16:54:27.657Z,14.40
2022-08-16T16:56:58.285Z,14.18
2022-08-16T16:59:28.199Z,20.35
2022-08-16T17:02:41.055Z,14.17
2022-08-16T17:04:50.290Z,12.70
2022-08-16T17:07:20.590Z,13.52
2022-08-16T17:09:53.984Z,18.95
2022-08-16T17:12:24.513Z,19.67
2022-08-16T17:14:55.226Z,13.83
2022-08-16T17:17:23.240Z,18.42
2022-08-16T17:19:51.032Z,15.77
2022-08-16T17:22:21.311Z,16.77
2022-08-16T17:24:53.477Z,14.50
2022-08-16T17:27:32.669Z,18.43
2022-08-16T17:30:18.066Z,13.50
2022-08-16T17:32:54.549Z,14.95
2022-08-16T17:35:33.795Z,15.45
2022-08-16T17:38:06.070Z,18.52
2022-08-16T17:40:46.914Z,16.00
2022-08-16T17:43:36.116Z,19.07
2022-08-16T17:46:51.007Z,15.32
2022-08-16T17:48:56.597Z,17.42
2022-08-16T17:51:27.507Z,14.68
2022-08-16T17:54:03.703Z,11.98
2022-08-16T17:56:32.441Z,14.40
2022-08-16T17:59:00.116Z,17.07
2022-08-16T18:01:28.922Z,15.93
2022-08-16T18:04:07.894Z,15.27
2022-08-16T18:06:38.314Z,14.40
2022-08-16T18:09:07.966Z,14.43
2022-08-16T18:11:40.702Z,17.73
2022-08-16T18:14:10.066Z,14.33
2022-08-16T18:16:42.508Z,15.57
2022-08-16T18:19:10.955Z,20.35
2022-08-16T18:21:59.712Z,14.77
2022-08-16T18:24:30.153Z,16.80
2022-08-16T18:27:25.383Z,12.23
2022-08-16T18:29:46.924Z,16.57
2022-08-16T18:32:24.349Z,15.73
2022-08-16T18:34:55.587Z,17.42
2022-08-16T18:37:24.313Z,16.25
2022-08-16T18:39:52.146Z,17.13
2022-08-16T18:42:20.781Z,15.33
2022-08-16T18:44:49.259Z,18.13
2022-08-16T18:47:17.104Z,18.42
2022-08-16T18:49:46.515Z,14.82
2022-08-16T18:52:25.010Z,14.38
2022-08-16T18:55:02.172Z,14.77
2022-08-16T18:57:45.082Z,17.40
2022-08-16T19:00:14.816Z,18.05
2022-08-16T19:02:58.921Z,13.95
2022-08-16T19:05:32.264Z,17.05
2022-08-16T19:08:02.528Z,14.15
2022-08-16T19:10:32.336Z,15.87
2022-08-16T19:13:04.678Z,14.20
2022-08-16T19:15:32.420Z,13.23
2022-08-16T19:18:01.042Z,15.57
2022-08-16T19:20:30.131Z,14.93
2022-08-16T19:23:09.981Z,16.25
2022-08-16T19:25:47.988Z,16.37
2022-08-16T19:28:49.962Z,12.63
2022-08-16T19:31:21.936Z,15.25
2022-08-16T19:33:54.851Z,23.52
2022-08-16T19:36:37.739Z,16.25
2022-08-16T19:39:14.869Z,18.93
2022-08-16T19:41:53.473Z,19.50
2022-08-16T19:44:23.244Z,12.75
2022-08-16T19:46:53.656Z,14.07
2022-08-16T19:49:21.265Z,13.35
2022-08-16T19:51:49.001Z,10.85
2022-08-16T19:54:20.182Z,11.87
2022-08-16T19:56:47.823Z,15.27
2022-08-16T19:59:19.261Z,14.07
2022-08-16T20:01:53.224Z,12.82
2022-08-16T20:04:29.009Z,12.75
2022-08-16T20:06:56.762Z,15.93
2022-08-16T20:09:27.316Z,15.00
2022-08-16T20:11:55.384Z,15.63
2022-08-16T20:14:26.604Z,13.40
2022-08-16T20:16:56.663Z,15.68
2022-08-16T20:19:28.375Z,12.30
2022-08-16T20:21:58.608Z,13.40
2022-08-16T20:24:34.821Z,14.60
2022-08-16T20:27:06.414Z,13.30
2022-08-16T20:29:34.530Z,19.30
2022-08-16T20:32:03.113Z,15.90
2022-08-16T20:34:31.092Z,17.15
2022-08-16T20:36:59.276Z,15.15
2022-08-16T20:39:29.702Z,16.85
2022-08-16T20:41:57.649Z,14.13
2022-08-16T20:44:25.941Z,13.32
2022-08-16T20:46:53.997Z,13.48
2022-08-16T20:49:21.773Z,17.70
2022-08-16T20:51:54.713Z,15.20
2022-08-16T20:54:25.497Z,13.03
2022-08-16T20:56:53.171Z,14.27
2022-08-16T20:59:21.004Z,16.90
2022-08-16T21:01:50.590Z,17.10
2022-08-16T21:04:20.323Z,16.90
2022-08-16T21:06:53.439Z,14.00
2022-08-16T21:09:24.486Z,21.83
2022-08-16T21:12:01.014Z,15.10
2022-08-16T21:14:29.997Z,13.90
2022-08-16T21:16:59.791Z,12.68
2022-08-16T21:19:27.687Z,14.95
2022-08-16T21:22:00.022Z,16.45
2022-08-16T21:24:27.993Z,18.93
2022-08-16T21:27:03.017Z,15.13
2022-08-16T21:29:43.128Z,15.20
2022-08-16T21:32:15.274Z,15.50
2022-08-16T21:34:44.579Z,17.75
2022-08-16T21:37:15.453Z,15.00
2022-08-16T21:39:44.287Z,17.20
2022-08-16T21:42:16.593Z,15.55
2022-08-16T21:44:45.260Z,17.20
2022-08-16T21:47:13.012Z,16.23
2022-08-16T21:49:40.722Z,18.30
2022-08-16T21:52:09.364Z,13.33
2022-08-16T21:54:56.711Z,15.83
2022-08-16T21:57:27.298Z,14.88
2022-08-16T22:00:08.564Z,14.60
2022-08-16T22:02:50.979Z,16.25
2022-08-16T22:05:19.225Z,14.75
2022-08-16T22:07:46.926Z,17.73
2022-08-16T22:11:05.055Z,15.88
2022-08-16T22:13:04.857Z,23.95
2022-08-16T22:15:35.391Z,18.73
2022-08-16T22:18:03.184Z,19.15
2022-08-16T22:20:32.835Z,15.03
2022-08-16T22:23:13.335Z,16.53
2022-08-16T22:25:46.438Z,16.15
2022-08-16T22:28:16.126Z,17.05
2022-08-16T22:30:44.510Z,16.13
2022-08-16T22:33:15.359Z,16.83
2022-08-16T22:35:49.659Z,17.10
2022-08-16T22:38:53.781Z,16.05
2022-08-16T22:41:06.924Z,20.30
2022-08-16T22:43:34.585Z,17.80
2022-08-16T22:46:04.928Z,13.02
2022-08-16T22:48:41.217Z,15.80
2022-08-16T22:51:10.713Z,17.88
2022-08-16T22:53:39.257Z,17.05
2022-08-16T22:56:07.118Z,19.90
2022-08-16T22:58:36.932Z,16.97
2022-08-16T23:01:07.627Z,18.98
2022-08-16T23:03:36.730Z,16.52
2022-08-16T23:06:05.344Z,15.73
2022-08-16T23:08:39.162Z,17.17
2022-08-16T23:11:10.713Z,19.20
2022-08-16T23:13:53.003Z,18.70
2022-08-16T23:16:29.184Z,16.27
2022-08-16T23:19:08.528Z,18.52
2022-08-16T23:21:38.486Z,15.30
2022-08-16T23:24:07.597Z,17.23
2022-08-16T23:26:48.037Z,18.90
2022-08-16T23:29:23.629Z,17.77
2022-08-16T23:31:56.113Z,17.77
2022-08-16T23:34:25.380Z,20.50
2022-08-16T23:37:01.976Z,15.65
2022-08-16T23:39:31.641Z,16.50
2022-08-16T23:42:00.599Z,15.02
2022-08-16T23:44:54.917Z,17.30
2022-08-16T23:47:15.989Z,19.75
2022-08-16T23:50:01.132Z,16.98
2022-08-16T23:52:40.576Z,16.42
2022-08-16T23:55:18.947Z,17.83
2022-08-16T23:57:47.389Z,17.53
